Historyczne dane pomiarowe

Dodano dane terminowe – wersja testowa.

Dane z okresu 1951-2019

Wersja bazy: 1.34 [2019-03-16, lista zmian], aktualizacja planowana na 2019-04-15

Dane meteo z obszaru Polski uzyskane na podstawie danych udostępnionych przez Instytut Meteorologii i Gospodarki Wodnej – Państwowy Instytut Badawczy.

 

Wybierz Datę:    

       

TemperaturaWilgotnośćZachmurzenieWiatrCiśnienieWidzialnośćZjawiska
 Data    tng td wb rh cc ccl cl cm ch dir g1 g2 mslp ppp      
1994-06-19 00:00:00 13.0--- 12.0 12.493wxwxwx2wx--1010.7 970.1 2.1---wxw1
1994-06-19 01:00:00 12.6--- 11.7 12.194wxwxwx0wx--1011.0 970.4----wx
1994-06-19 02:00:00 12.1--- 11.2 11.694wxwxwx2wx--1011.2 970.5----wx
1994-06-19 03:00:00 12.4--- 11.5 11.994wxwxwx0wx--1010.7 970.1----wx
1994-06-19 04:00:00 12.1--- 11.2 11.694wxwxwxwx0wx--1010.5 969.8----wx
1994-06-19 05:00:00 12.9--- 12.4 12.697wxwxwxwx0wx--1010.2 969.6----wx
1994-06-19 06:00:00 14.5--- 13.3 13.893wxwxwxwx1wx--1010.2 969.9 0.0---wx
1994-06-19 07:00:00 19.0--- 12.5 15.166wxwxwxwx2wx--1009.4 969.7----wx
1994-06-19 08:00:00 20.8--- 8.3 13.845wxwxwxwx5wx--1009.2 969.8----wx
1994-06-19 09:00:00 20.7--- 7.5 13.442wxwxwxwx5wx--1009.3 969.8----wx
1994-06-19 10:00:00 22.7--- 9.8 15.244wxwxwxwx5wx--1009.0 969.8----wx
1994-06-19 11:00:00 23.8--- 9.3 15.440wxwxwxwx5wx--1009.1 970.0----wx
1994-06-19 12:00:00 23.9--- 6.8 14.433wxwxwxwx7wx--1008.7 969.7 0.0---wx
1994-06-19 13:00:00 23.7--- 7.0 14.434wxwxwxwx8wx--1008.6 969.6----wx
1994-06-19 14:00:00 24.4--- 5.7 14.230wxwxwxwx8wx--1008.6 969.6----wx
1994-06-19 15:00:00 24.6--- 6.3 14.531wxwxwxwx7wx--1008.5 969.6----wx
1994-06-19 16:00:00 23.4--- 10.3 15.744wxwxwxwx4wx--1008.6 969.5----wx
1994-06-19 17:00:00 22.4--- 9.4 14.943wxwxwxwx5wx--1008.9 969.7----wx
1994-06-19 18:00:00 22.2--- 9.8 15.045wxwxwxwx3wx--1009.4 970.1 0.0---wx
1994-06-19 19:00:00 20.4--- 10.4 14.653wxwxwx0wx--1010.0 970.5----wx
1994-06-19 20:00:00 16.3--- 10.3 12.968wxwxwx0wx--1011.0 970.9----wx
1994-06-19 21:00:00 13.9--- 9.4 11.474wxwxwx0wx--1011.8 971.3----wx
1994-06-19 22:00:00 12.2--- 9.5 10.783wxwxwx0wx--1012.3 971.6----wx
1994-06-19 23:00:00 11.1--- 8.7 9.885wxwxwx0wx--1013.0 972.1----wx

 

Źródłem pochodzenia danych jest Instytut Meteorologii i Gospodarki Wodnej – Państwowy Instytut Badawczy. Dane Instytutu Meteorologii i Gospodarki Wodnej – Państwowego Instytutu Badawczego zostały przetworzone.

Dane źródłowe można odnaleźć na stronie https://dane.imgw.pl